Flight Track Log - Related Links

Times and Time Zones

All times are in EDT time to prevent confusion due to time zone crossing. See the SWA1802 flight status page for this flight to view local times or setup timezone preferences in your user account.


Time Position Orientation Groundspeed Altitude Reporting Facility
EDT Latitude Longitude Course Direction KTS MPH feet Rate Location/Type
Thu 06:31:32 PM 41.7690 -87.7740 233° Southwest 162 186 1,800  Level FlightAware ADS-B
Thu 06:31:44 PM 41.7650 -87.7840 242° Southwest 169 194 2,200 1,500 Climbing FlightAware ADS-B
Thu 06:32:00 PM 41.7600 -87.8000 247° West 188 216 2,500 1,071 Climbing FlightAware ADS-B
Thu 06:32:12 PM 41.7590 -87.8140 265° West 203 234 2,700 600 Climbing FlightAware ADS-B
Thu 06:32:40 PM 41.7680 -87.8530 287° West 225 259 2,900 316 Climbing FlightAware ADS-B
Thu 06:33:09 PM 41.7770 -87.8910 288° West 220 253 3,000 882 Climbing FlightAware ADS-B
Thu 06:33:48 PM 41.7770 -87.9400 270° West 216 249 3,900 1,964 Climbing FlightAware ADS-B
Thu 06:34:04 PM 41.7770 -87.9610 270° West 217 250 4,800 2,538 Climbing FlightAware ADS-B
Thu 06:34:40 PM 41.7760 -88.0190 269° West 257 296 6,100 2,492 Climbing FlightAware ADS-B
Thu 06:35:09 PM 41.7740 -88.0640 267° West 262 302 7,500 2,945 Climbing FlightAware ADS-B
Thu 06:35:35 PM 41.7730 -88.1070 268° West 267 307 8,800 2,955 Climbing FlightAware ADS-B
Thu 06:36:16 PM 41.7850 -88.1740 284° West 276 318 10,800 1,898 Climbing FlightAware ADS-B
Thu 06:37:13 PM 41.7940 -88.2690 277° West 287 330 11,900 1,366 Climbing FlightAware ADS-B
Thu 06:37:57 PM 41.7800 -88.3460 256° West 291 335 13,100 2,143 Climbing FlightAware ADS-B
Thu 06:38:37 PM 41.7670 -88.4170 256° West 295 339 14,900 2,550 Climbing FlightAware ADS-B
Thu 06:39:17 PM 41.7530 -88.4890 255° West 304 350 16,500 1,895 Climbing FlightAware ADS-B
Thu 06:39:53 PM 41.7400 -88.5580 256° West 334 384 17,300 1,421 Climbing FlightAware ADS-B
Thu 06:40:33 PM 41.7240 -88.6390 255° West 355 409 18,300 1,976 Climbing FlightAware ADS-B
Thu 06:41:15 PM 41.7070 -88.7320 256° West 360 414 20,000 2,175 Climbing FlightAware ADS-B
Thu 06:41:53 PM 41.6910 -88.8120 255° West 366 421 21,200 1,952 Climbing FlightAware ADS-B
Thu 06:42:38 PM 41.6710 -88.9140 255° West 374 430 22,700 1,926 Climbing FlightAware ADS-B
Thu 06:43:14 PM 41.6550 -88.9960 255° West 381 438 23,800 1,650 Climbing FlightAware ADS-B
Thu 06:43:58 PM 41.6350 -89.0990 255° West 391 450 24,900 1,416 Climbing FlightAware ADS-B
Thu 06:44:43 PM 41.6150 -89.2030 256° West 406 467 25,900 907 Climbing FlightAware ADS-B
Thu 06:45:24 PM 41.5950 -89.3060 255° West 429 494 26,200 889 Climbing FlightAware ADS-B
Thu 06:46:04 PM 41.5780 -89.4130 258° West 437 503 27,100 1,421 Climbing FlightAware ADS-B
Thu 06:46:40 PM 41.5630 -89.5070 258° West 439 505 28,000 1,350 Climbing FlightAware ADS-B
Thu 06:47:24 PM 41.5440 -89.6230 258° West 443 510 28,900 1,271 Climbing FlightAware ADS-B
Thu 06:48:05 PM 41.5260 -89.7350 258° West 446 513 29,800 1,378 Climbing FlightAware ADS-B
Thu 06:48:38 PM 41.5110 -89.8220 257° West 443 510 30,600 1,440 Climbing FlightAware ADS-B
Thu 06:49:20 PM 41.4930 -89.9320 258° West 441 507 31,600 1,244 Climbing FlightAware ADS-B
Thu 06:50:00 PM 41.4750 -90.0390 257° West 444 511 32,300 977 Climbing FlightAware ADS-B
Thu 06:50:46 PM 41.4540 -90.1630 257° West 448 516 33,000 907 Climbing FlightAware ADS-B
Thu 06:51:26 PM 41.4360 -90.2710 258° West 453 521 33,600 929 Climbing FlightAware ADS-B
Thu 06:52:10 PM 41.4160 -90.3900 257° West 455 524 34,300 889 Climbing FlightAware ADS-B
Thu 06:52:47 PM 41.3980 -90.4910 257° West 457 526 34,800 907 Climbing FlightAware ADS-B
Thu 06:53:36 PM 41.3760 -90.6250 258° West 457 526 35,600 758 Climbing FlightAware ADS-B
Thu 06:54:22 PM 41.3540 -90.7500 257° West 456 525 36,000 267 Climbing FlightAware ADS-B
Thu 06:55:06 PM 41.3330 -90.8680 257° West 455 524 36,000  Level FlightAware ADS-B
Thu 06:55:34 PM 41.3200 -90.9440 257° West 454 522 36,000  Level FlightAware ADS-B
Thu 06:56:34 PM 41.2900 -91.1110 257° West 453 521 36,000  Level FlightAware ADS-B
Thu 06:57:12 PM 41.2720 -91.2100 256° West 452 520 36,000  Level FlightAware ADS-B
Thu 06:58:00 PM 41.2490 -91.3420 257° West 450 518 36,000  Level FlightAware ADS-B
Thu 06:58:37 PM 41.2310 -91.4380 256° West 450 518 36,000  Level FlightAware ADS-B
Thu 06:59:31 PM 41.2070 -91.5700 256° West 451 519 36,000  Level FlightAware ADS-B
Thu 07:04:31 PM 41.0540 -92.4000 257° West 459 528 36,000  Level FlightAware ADS-B
Thu 07:05:16 PM 41.0320 -92.5200 256° West 461 531 36,000  Level FlightAware ADS-B
Thu 07:06:29 PM 40.9930 -92.7190 256° West 462 532 36,000  Level FlightAware ADS-B
Thu 07:07:11 PM 40.9700 -92.8330 255° West 462 532 36,000  Level FlightAware ADS-B
Thu 07:07:52 PM 40.9480 -92.9460 256° West 464 534 36,000  Level FlightAware ADS-B
Thu 07:08:27 PM 40.9300 -93.0410 256° West 465 535 36,000  Level FlightAware ADS-B
Thu 07:09:08 PM 40.9070 -93.1540 255° West 465 535 36,000  Level FlightAware ADS-B
Thu 07:09:52 PM 40.8840 -93.2740 256° West 465 535 36,000  Level FlightAware ADS-B
Thu 07:10:32 PM 40.8610 -93.3880 255° West 464 534 36,000  Level FlightAware ADS-B
Thu 07:11:25 PM 40.8360 -93.5120 255° West 464 534 36,000  Level FlightAware ADS-B
Thu 07:12:12 PM 40.8060 -93.6590 255° West 462 532 36,000  Level FlightAware ADS-B
Thu 07:12:46 PM 40.7900 -93.7400 255° West 462 532 36,000  Level FlightAware ADS-B
Thu 07:13:34 PM 40.7670 -93.8520 255° West 462 532 36,000  Level FlightAware ADS-B
Thu 07:14:12 PM 40.7490 -93.9400 255° West 462 532 36,000  Level FlightAware ADS-B
Thu 07:14:58 PM 40.7140 -94.1100 255° West 467 537 36,000  Level FlightAware ADS-B
Thu 07:15:38 PM 40.6910 -94.2200 255° West 466 536 36,000  Level FlightAware ADS-B
Thu 07:16:22 PM 40.6660 -94.3430 255° West 466 536 36,000  Level FlightAware ADS-B
Thu 07:17:38 PM 40.6220 -94.5480 254° West 466 536 36,000  Level FlightAware ADS-B
Thu 07:18:29 PM 40.5950 -94.6750 254° West 467 537 36,000  Level FlightAware ADS-B
Thu 07:19:17 PM 40.5710 -94.7870 254° West 467 537 36,000  Level FlightAware ADS-B
Thu 07:20:00 PM 40.5400 -94.9360 255° West 469 540 36,000  Level FlightAware ADS-B
Thu 07:20:41 PM 40.5190 -95.0320 254° West 469 540 36,000  Level FlightAware ADS-B
Thu 07:21:17 PM 40.5010 -95.1160 254° West 469 540 36,000  Level FlightAware ADS-B
Thu 07:22:56 PM 40.4500 -95.3460 254° West 469 540 36,000  Level FlightAware ADS-B
Thu 07:23:32 PM 40.4320 -95.4300 254° West 469 540 36,000  Level FlightAware ADS-B
Thu 07:24:35 PM 40.3770 -95.6780 254° West 474 545 36,000  Level FlightAware ADS-B
Thu 07:25:35 PM 40.3390 -95.8510 254° West 474 545 36,000  Level FlightAware ADS-B
Thu 07:26:12 PM 40.3180 -95.9450 254° West 475 547 36,000  Level FlightAware ADS-B
Thu 07:26:52 PM 40.2910 -96.0620 253° West 477 549 36,000  Level FlightAware ADS-B
Thu 07:27:38 PM 40.2620 -96.1890 253° West 478 550 36,000  Level FlightAware ADS-B
Thu 07:28:26 PM 40.2310 -96.3230 253° West 478 550 36,000  Level FlightAware ADS-B
Thu 07:29:19 PM 40.1980 -96.4680 253° West 478 550 36,000  Level FlightAware ADS-B
Thu 07:29:59 PM 40.1730 -96.5770 253° West 480 552 36,000  Level FlightAware ADS-B
Thu 07:31:13 PM 40.1320 -96.7530 253° West 480 552 36,000  Level FlightAware ADS-B
Thu 07:31:49 PM 40.1120 -96.8380 253° West 480 552 36,000 815 Level FlightAware ADS-B
Thu 07:32:34 PM 40.1370 -96.7320 73° East 482 555 37,100 816 Climbing FlightAware ADS-B
Thu 07:34:16 PM 40.0140 -97.2920 254° West 480 552 38,000 358 Climbing FlightAware ADS-B
Thu 07:35:05 PM 39.9900 -97.4100 255° West 480 552 38,000  Level FlightAware ADS-B
Thu 07:35:46 PM 39.9600 -97.5510 255° West 477 549 38,000  Level FlightAware ADS-B
Thu 07:37:02 PM 39.9160 -97.7610 255° West 476 548 38,000  Level FlightAware ADS-B
Thu 07:37:39 PM 39.8960 -97.8520 254° West 476 548 38,000  Level FlightAware ADS-B
Thu 07:38:39 PM 39.8620 -98.0150 255° West 475 547 38,000  Level FlightAware ADS-B
Thu 07:39:19 PM 39.8390 -98.1230 255° West 474 545 38,000  Level FlightAware ADS-B
Thu 07:40:07 PM 39.8140 -98.2350 254° West 474 545 38,000  Level FlightAware ADS-B
Thu 07:40:57 PM 39.7880 -98.3520 254° West 474 545 38,000  Level FlightAware ADS-B
Thu 07:42:21 PM 39.7450 -98.5480 254° West 474 545 38,000  Level FlightAware ADS-B
Thu 07:43:10 PM 39.7200 -98.6620 254° West 474 545 38,000  Level FlightAware ADS-B
Thu 07:43:59 PM 39.6950 -98.7760 254° West 474 545 38,000  Level FlightAware ADS-B
Thu 07:44:46 PM 39.6710 -98.8850 254° West 474 545 38,000  Level FlightAware ADS-B
Thu 07:45:21 PM 39.6530 -98.9670 254° West 474 545 38,000  Level FlightAware ADS-B
Thu 07:46:33 PM 39.6160 -99.1340 254° West 474 545 38,000  Level FlightAware ADS-B
Thu 07:47:34 PM 39.5840 -99.2760 254° West 474 545 38,000  Level FlightAware ADS-B
Thu 07:48:35 PM 39.5530 -99.4180 254° West 474 545 38,000  Level FlightAware ADS-B
Thu 07:49:08 PM 39.4789 -99.7406 254° West 478 550 38,000  Level Denver Center
Thu 07:50:10 PM 39.4422 -99.8975 253° West 477 549 38,000  Level Denver Center
Thu 07:51:12 PM 39.4000 -100.0817 254° West 476 548 38,000  Level Denver Center
Thu 07:52:26 PM 39.3628 -100.2378 253° West 475 547 38,000  Level Denver Center
Thu 07:53:29 PM 39.3139 -100.4447 253° West 472 543 38,000  Level Denver Center
Thu 07:54:31 PM 39.2772 -100.6003 253° West 472 543 38,000  Level Denver Center
Thu 07:55:33 PM 39.2336 -100.7819 253° West 474 545 38,000  Level Denver Center
Thu 07:56:35 PM 39.1961 -100.9392 253° West 477 549 38,000  Level Denver Center
Thu 07:57:37 PM 39.1517 -101.1211 253° West 477 549 38,000  Level Denver Center
Thu 07:58:39 PM 39.1139 -101.2781 253° West 479 551 38,000  Level Denver Center
Thu 07:59:41 PM 39.0683 -101.4594 252° West 476 548 38,000  Level Denver Center
Thu 08:05:26 PM 38.8320 -102.3960 252° West 477 549 38,000  Level FlightAware ADS-B
Thu 08:06:10 PM 38.8000 -102.5160 251° West 474 545 38,000  Level FlightAware ADS-B
Thu 08:06:42 PM 38.7790 -102.5990 252° West 474 545 38,000  Level FlightAware ADS-B
Thu 08:07:22 PM 38.7510 -102.7070 252° West 474 545 38,000  Level FlightAware ADS-B
Thu 08:08:04 PM 38.7220 -102.8190 252° West 473 544 38,000  Level FlightAware ADS-B
Thu 08:08:48 PM 38.6920 -102.9320 251° West 473 544 38,000  Level FlightAware ADS-B
Thu 08:09:31 PM 38.6620 -103.0460 251° West 474 545 38,000  Level FlightAware ADS-B
Thu 08:10:11 PM 38.6320 -103.1570 251° West 474 545 38,000  Level FlightAware ADS-B
Thu 08:10:50 PM 38.6060 -103.2560 251° West 472 543 38,000  Level FlightAware ADS-B
Thu 08:11:01 PM 38.5990 -103.2840 252° West 472 543 38,000  Level FlightAware ADS-B
Thu 08:14:23 PM 38.4230 -103.7510 244° Southwest 477 549 38,000  Level FlightAware ADS-B
Thu 08:15:16 PM 38.3570 -103.8450 228° Southwest 477 549 38,000  Level FlightAware ADS-B
Thu 08:15:56 PM 38.2820 -103.9570 230° Southwest 477 549 38,000  Level FlightAware ADS-B
Thu 08:16:48 PM 38.2170 -104.0490 228° Southwest 477 549 38,000  Level FlightAware ADS-B
Thu 08:17:24 PM 38.1710 -104.1130 228° Southwest 477 549 38,000  Level FlightAware ADS-B
Thu 08:18:37 PM 38.0440 -104.2990 229° Southwest 474 545 38,000  Level FlightAware ADS-B
Thu 08:19:25 PM 37.9620 -104.4170 229° Southwest 473 544 38,000  Level FlightAware ADS-B
Thu 08:20:07 PM 37.9090 -104.4930 229° Southwest 473 544 38,000  Level FlightAware ADS-B
Thu 08:20:44 PM 37.8630 -104.5570 228° Southwest 473 544 38,000  Level FlightAware ADS-B
Thu 08:21:33 PM 37.8020 -104.6430 228° Southwest 473 544 38,000  Level FlightAware ADS-B
Thu 08:22:09 PM 37.7250 -104.7580 230° Southwest 477 549 38,000  Level FlightAware ADS-B
Thu 08:22:49 PM 37.6750 -104.8280 228° Southwest 477 549 38,000  Level FlightAware ADS-B
Thu 08:23:49 PM 37.6000 -104.9340 228° Southwest 477 549 38,000  Level FlightAware ADS-B
Thu 08:24:25 PM 37.5550 -104.9970 228° Southwest 477 549 38,000  Level FlightAware ADS-B
Thu 08:25:03 PM 37.5070 -105.0640 228° Southwest 477 549 38,000  Level FlightAware ADS-B
Thu 08:25:39 PM 37.4620 -105.1270 228° Southwest 477 549 38,000  Level FlightAware ADS-B
Thu 08:26:27 PM 37.4010 -105.2110 228° Southwest 477 549 38,000  Level FlightAware ADS-B
Thu 08:27:03 PM 37.3560 -105.2740 228° Southwest 477 549 38,000  Level FlightAware ADS-B
Thu 08:27:51 PM 37.2960 -105.3590 228° Southwest 477 549 38,000  Level FlightAware ADS-B
Thu 08:28:27 PM 37.2510 -105.4220 228° Southwest 477 549 38,000  Level FlightAware ADS-B
Thu 08:29:15 PM 37.1910 -105.5060 228° Southwest 477 549 38,000  Level FlightAware ADS-B
Thu 08:29:51 PM 37.1450 -105.5690 228° Southwest 477 549 38,000  Level FlightAware ADS-B
Thu 08:30:27 PM 37.1000 -105.6320 228° Southwest 477 549 38,000  Level FlightAware ADS-B
Thu 08:31:15 PM 37.0400 -105.7150 228° Southwest 477 549 38,000  Level FlightAware ADS-B
Thu 08:31:49 PM 36.9970 -105.7750 228° Southwest 477 549 38,000  Level FlightAware ADS-B
Thu 08:32:59 PM 36.7590 -106.0860 226° Southwest 480 552 38,000  Level FlightAware ADS-B
Thu 08:33:39 PM 36.6880 -106.1560 218° Southwest 478 550 38,000  Level FlightAware ADS-B
Thu 08:34:18 PM 36.6210 -106.2210 218° Southwest 478 550 38,000  Level FlightAware ADS-B
Thu 08:35:04 PM 36.5410 -106.3000 218° Southwest 476 548 38,000  Level FlightAware ADS-B
Thu 08:35:48 PM 36.4640 -106.3730 217° Southwest 473 544 38,000  Level FlightAware ADS-B
Thu 08:36:28 PM 36.3980 -106.4380 218° Southwest 470 541 38,000  Level FlightAware ADS-B
Thu 08:37:09 PM 36.3260 -106.5080 218° Southwest 467 537 38,000  Level FlightAware ADS-B
Thu 08:37:44 PM 36.2670 -106.5680 219° Southwest 465 535 38,000  Level FlightAware ADS-B
Thu 08:38:28 PM 36.1990 -106.6470 223° Southwest 467 537 38,000  Level FlightAware ADS-B
Thu 08:39:08 PM 36.1590 -106.7400 242° Southwest 467 537 38,000  Level FlightAware ADS-B
Thu 08:39:44 PM 36.1490 -106.8340 263° West 464 534 38,000  Level FlightAware ADS-B
Thu 08:40:34 PM 36.1420 -106.9580 266° West 463 533 38,000  Level FlightAware ADS-B
Thu 08:41:22 PM 36.1360 -107.0660 266° West 463 533 38,000  Level FlightAware ADS-B
Thu 08:41:58 PM 36.1310 -107.1470 266° West 463 533 38,000  Level FlightAware ADS-B
Thu 08:42:48 PM 36.1230 -107.3270 267° West 470 541 38,000  Level FlightAware ADS-B
Thu 08:43:27 PM 36.1180 -107.4160 266° West 470 541 38,000  Level FlightAware ADS-B
Thu 08:44:27 PM 36.1100 -107.5530 266° West 470 541 38,000  Level FlightAware ADS-B
Thu 08:45:29 PM 36.1020 -107.6940 266° West 470 541 38,000  Level FlightAware ADS-B
Thu 08:46:05 PM 36.0980 -107.7760 267° West 470 541 38,000  Level FlightAware ADS-B
Thu 08:46:53 PM 36.0910 -107.8860 266° West 470 541 38,000  Level FlightAware ADS-B
Thu 08:47:29 PM 36.0870 -107.9680 267° West 470 541 38,000  Level FlightAware ADS-B
Thu 08:48:17 PM 36.0810 -108.0780 266° West 470 541 38,000  Level FlightAware ADS-B
Thu 08:48:53 PM 36.0760 -108.1600 266° West 470 541 38,000  Level FlightAware ADS-B
Thu 08:49:41 PM 36.0700 -108.2690 266° West 470 541 38,000  Level FlightAware ADS-B
Thu 08:50:17 PM 36.0650 -108.3510 266° West 470 541 38,000  Level FlightAware ADS-B
Thu 08:51:05 PM 36.0590 -108.4610 266° West 470 541 38,000  Level FlightAware ADS-B
Thu 08:51:42 PM 36.0540 -108.5450 266° West 470 541 38,000  Level FlightAware ADS-B
Thu 08:52:31 PM 36.0480 -108.6570 266° West 470 541 38,000  Level FlightAware ADS-B
Thu 08:54:27 PM 36.0370 -109.2150 269° West 482 555 38,000  Level FlightAware ADS-B
Thu 08:55:07 PM 36.0390 -109.3260 271° West 483 556 38,000  Level FlightAware ADS-B
Thu 08:55:51 PM 36.0420 -109.4510 272° West 485 558 38,000  Level FlightAware ADS-B
Thu 08:56:33 PM 36.0350 -109.5640 266° West 487 560 38,000  Level FlightAware ADS-B
Thu 08:57:13 PM 36.0260 -109.6770 264° West 489 563 38,000  Level FlightAware ADS-B
Thu 08:57:59 PM 36.0160 -109.8050 265° West 488 562 38,000  Level FlightAware ADS-B
Thu 08:58:39 PM 36.0070 -109.9140 264° West 487 560 38,000  Level FlightAware ADS-B
Thu 08:59:19 PM 35.9790 -110.0200 252° West 485 558 38,000  Level FlightAware ADS-B
Thu 09:00:01 PM 35.9300 -110.1210 239° Southwest 482 555 38,000  Level FlightAware ADS-B
Thu 09:00:47 PM 35.8780 -110.2270 239° Southwest 483 556 38,000  Level FlightAware ADS-B
Thu 09:01:27 PM 35.8310 -110.3220 239° Southwest 481 554 38,000  Level FlightAware ADS-B
Thu 09:02:07 PM 35.7850 -110.4140 238° Southwest 481 554 38,000  Level FlightAware ADS-B
Thu 09:02:51 PM 35.7340 -110.5170 239° Southwest 479 551 38,000  Level FlightAware ADS-B
Thu 09:03:33 PM 35.6790 -110.6100 234° Southwest 480 552 38,000  Level FlightAware ADS-B
Thu 09:04:16 PM 35.6110 -110.6900 224° Southwest 481 554 38,000  Level FlightAware ADS-B
Thu 09:04:55 PM 35.5470 -110.7620 222° Southwest 482 555 38,000  Level FlightAware ADS-B
Thu 09:05:41 PM 35.4710 -110.8460 222° Southwest 482 555 38,000  Level FlightAware ADS-B
Thu 09:06:21 PM 35.4040 -110.9210 222° Southwest 485 558 38,000  Level FlightAware ADS-B
Thu 09:06:57 PM 35.3440 -110.9880 222° Southwest 487 560 38,000  Level FlightAware ADS-B
Thu 09:07:45 PM 35.2640 -111.0770 222° Southwest 489 563 38,000  Level FlightAware ADS-B
Thu 09:08:29 PM 35.1900 -111.1590 222° Southwest 491 565 38,000  Level FlightAware ADS-B
Thu 09:09:08 PM 35.1250 -111.2310 222° Southwest 489 563 38,000  Level FlightAware ADS-B
Thu 09:09:45 PM 35.0610 -111.3010 222° Southwest 489 563 38,000  Level FlightAware ADS-B
Thu 09:10:23 PM 34.9990 -111.3700 222° Southwest 491 565 38,000  Level FlightAware ADS-B
Thu 09:12:37 PM 34.8190 -111.5790 224° Southwest 489 563 38,000  Level FlightAware ADS-B
Thu 09:13:19 PM 34.7160 -111.7150 227° Southwest 492 566 38,000  Level FlightAware ADS-B
Thu 09:14:01 PM 34.6770 -111.8170 245° Southwest 486 559 38,000  Level FlightAware ADS-B
Thu 09:14:53 PM 34.6560 -111.9550 260° West 475 547 38,000  Level FlightAware ADS-B
Thu 09:15:29 PM 34.6440 -112.0490 261° West 475 547 38,000  Level FlightAware ADS-B
Thu 09:16:13 PM 34.6300 -112.1650 262° West 474 545 38,000  Level FlightAware ADS-B
Thu 09:16:53 PM 34.6160 -112.2700 261° West 476 548 38,000  Level FlightAware ADS-B
Thu 09:17:31 PM 34.6030 -112.3720 261° West 476 548 38,000  Level FlightAware ADS-B
Thu 09:18:19 PM 34.5860 -112.4970 261° West 477 549 38,000  Level FlightAware ADS-B
Thu 09:18:55 PM 34.5740 -112.5920 261° West 475 547 38,000  Level FlightAware ADS-B
Thu 09:19:43 PM 34.5570 -112.7190 261° West 475 547 38,000  Level FlightAware ADS-B
Thu 09:20:19 PM 34.5450 -112.8130 261° West 477 549 38,000  Level FlightAware ADS-B
Thu 09:20:59 PM 34.5300 -112.9190 260° West 477 549 38,000  Level FlightAware ADS-B
Thu 09:21:39 PM 34.5120 -113.0240 258° West 479 551 38,000  Level FlightAware ADS-B
Thu 09:22:19 PM 34.4860 -113.1260 253° West 480 552 38,000  Level FlightAware ADS-B
Thu 09:23:03 PM 34.4550 -113.2390 252° West 480 552 38,000  Level FlightAware ADS-B
Thu 09:23:47 PM 34.4250 -113.3500 252° West 474 545 38,000  Level FlightAware ADS-B
Thu 09:24:28 PM 34.3960 -113.4510 251° West 473 544 38,000  Level FlightAware ADS-B
Thu 09:25:13 PM 34.3650 -113.5620 251° West 471 542 38,000  Level FlightAware ADS-B
Thu 09:25:52 PM 34.3390 -113.6600 252° West 469 540 38,000  Level FlightAware ADS-B
Thu 09:26:38 PM 34.3070 -113.7740 251° West 468 539 38,000  Level FlightAware ADS-B
Thu 09:27:18 PM 34.2790 -113.8750 251° West 468 539 38,000  Level FlightAware ADS-B
Thu 09:27:59 PM 34.2520 -113.9740 252° West 467 537 38,000  Level FlightAware ADS-B
Thu 09:28:42 PM 34.2220 -114.0820 251° West 467 537 38,000  Level FlightAware ADS-B
Thu 09:29:20 PM 34.1950 -114.1760 251° West 466 536 38,000  Level FlightAware ADS-B
Thu 09:30:04 PM 34.1710 -114.2870 255° West 461 531 38,000  Level FlightAware ADS-B
Thu 09:30:50 PM 34.1650 -114.4040 266° West 457 526 38,000  Level FlightAware ADS-B
Thu 09:31:30 PM 34.1620 -114.5020 268° West 457 526 38,000 -74 Level FlightAware ADS-B
Thu 09:32:11 PM 34.1580 -114.6080 267° West 457 526 37,900 -279 Descending FlightAware ADS-B
Thu 09:32:56 PM 34.1540 -114.7110 267° West 458 527 37,600 -222 Descending FlightAware ADS-B
Thu 09:33:32 PM 34.1500 -114.7890 266° West 458 527 37,600  Level FlightAware ADS-B
Thu 09:34:21 PM 34.1460 -114.8960 267° West 458 527 37,600  Level FlightAware ADS-B
Thu 09:34:58 PM 34.1420 -114.9760 267° West 458 527 37,600  Level FlightAware ADS-B
Thu 09:35:34 PM 34.1390 -115.0540 267° West 458 527 37,600 -1,143 Level FlightAware ADS-B
Thu 09:36:22 PM 34.1320 -115.2650 268° West 472 543 36,000 -1,116 Descending FlightAware ADS-B
Thu 09:37:00 PM 34.1230 -115.3640 264° West 470 541 36,000  Level FlightAware ADS-B
Thu 09:37:38 PM 34.1150 -115.4570 264° West 468 539 36,000  Level FlightAware ADS-B
Thu 09:38:20 PM 34.1050 -115.5690 264° West 467 537 36,000  Level FlightAware ADS-B
Thu 09:39:05 PM 34.0940 -115.6840 263° West 465 535 36,000  Level FlightAware ADS-B
Thu 09:39:45 PM 34.0840 -115.7920 264° West 464 534 36,000  Level FlightAware ADS-B
Thu 09:40:29 PM 34.0740 -115.9020 264° West 460 529 36,000 -897 Level FlightAware ADS-B
Thu 09:41:12 PM 34.0640 -116.0080 264° West 456 525 34,700 -2,561 Descending FlightAware ADS-B
Thu 09:41:51 PM 34.0540 -116.1120 263° West 464 534 32,500 -2,815 Descending FlightAware ADS-B
Thu 09:42:33 PM 34.0440 -116.2190 264° West 458 527 30,900 -2,233 Descending FlightAware ADS-B
Thu 09:43:17 PM 34.0330 -116.3260 263° West 449 517 29,300 -2,214 Descending FlightAware ADS-B
Thu 09:43:57 PM 34.0230 -116.4270 263° West 441 507 27,800 -2,214 Descending FlightAware ADS-B
Thu 09:44:41 PM 34.0130 -116.5300 263° West 432 497 26,200 -2,175 Descending FlightAware ADS-B
Thu 09:45:17 PM 34.0050 -116.6160 264° West 425 489 24,900 -2,214 Descending FlightAware ADS-B
Thu 09:46:05 PM 33.9930 -116.7300 263° West 416 479 23,100 -2,225 Descending FlightAware ADS-B
Thu 09:46:46 PM 33.9840 -116.8220 263° West 407 468 21,600 -2,118 Descending FlightAware ADS-B
Thu 09:47:30 PM 33.9740 -116.9200 263° West 400 460 20,100 -2,074 Descending FlightAware ADS-B
Thu 09:48:07 PM 33.9660 -117.0000 263° West 392 451 18,800 -2,000 Descending FlightAware ADS-B
Thu 09:48:51 PM 33.9580 -117.0960 264° West 382 440 17,400 -1,326 Descending FlightAware ADS-B
Thu 09:49:33 PM 33.9630 -117.1820 274° West 362 417 16,900 -1,674 Descending FlightAware ADS-B
Thu 09:50:17 PM 33.9710 -117.2720 276° West 371 427 15,000 -2,214 Descending FlightAware ADS-B
Thu 09:50:57 PM 33.9780 -117.3540 276° West 360 414 13,800 -1,630 Descending FlightAware ADS-B
Thu 09:51:38 PM 33.9850 -117.4320 276° West 346 398 12,800 -1,663 Descending FlightAware ADS-B
Thu 09:52:20 PM 33.9910 -117.5130 275° West 342 394 11,500 -1,595 Descending FlightAware ADS-B
Thu 09:52:57 PM 33.9970 -117.5830 276° West 324 373 10,700 -1,063 Descending FlightAware ADS-B
Thu 09:53:39 PM 34.0030 -117.6560 276° West 304 350 10,100 -519 Descending FlightAware ADS-B
Thu 09:54:18 PM 34.0050 -117.6910 274° West 302 348 10,000 -857 Descending FlightAware ADS-B
Thu 09:54:49 PM 33.9980 -117.7710 264° West 298 343 9,100 -1,627 Descending FlightAware ADS-B
Thu 09:55:17 PM 33.9940 -117.8180 264° West 296 341 8,400 -1,418 Descending FlightAware ADS-B
Thu 09:55:44 PM 33.9900 -117.8620 264° West 295 339 7,800 -1,071 Descending FlightAware ADS-B
Thu 09:56:13 PM 33.9850 -117.9090 263° West 292 336 7,400 -982 Descending FlightAware ADS-B
Thu 09:56:39 PM 33.9810 -117.9510 263° West 288 331 6,900 -750 Descending FlightAware ADS-B
Thu 09:57:09 PM 33.9760 -117.9980 263° West 275 316 6,700 -444 Descending FlightAware ADS-B
Thu 09:57:33 PM 33.9720 -118.0340 262° West 264 304 6,500 -360 Descending FlightAware ADS-B
Thu 09:57:59 PM 33.9690 -118.0710 264° West 250 288 6,400 -462 Descending FlightAware ADS-B
Thu 09:58:25 PM 33.9650 -118.1060 262° West 236 272 6,100 -873 Descending FlightAware ADS-B
Thu 09:58:54 PM 33.9620 -118.1420 264° West 224 258 5,600 -1,134 Descending FlightAware ADS-B
Thu 10:01:46 PM 33.9460 -118.2940 263° West 147 169 2,300 -1,200 Descending FlightAware ADS-B
Thu 10:02:09 PM 33.9450 -118.3120 266° West 144 166 1,700 -1,412 Descending FlightAware ADS-B
Thu 10:02:54 PM 33.9400 -118.3530 262° West 128 147 700 -1,099 Descending FlightAware ADS-B
Thu 10:03:20 PM 33.9380 -118.3720 263° West 132 152 400 -400 Descending FlightAware ADS-B
Thu 10:03:54 PM 33.9360 -118.3930 263° West 135 155 300 -176 Descending FlightAware ADS-B
Thu 10:11:00 PM 33.9333 -118.4000 270° West  Level FlightAware Approximate
Thu 10:12:00 PM 33.9425 -118.4081 270° West  Level Estimated

Login

Don't have an account? Register now (free) for customized features, flight alerts, and more!